sensor_id;sensor_type;location;lat;lon;timestamp;P1;durP1;ratioP1;P2;durP2;ratioP2
20314;SDS011;10315;50.958;13.080;2022-08-18T00:00:47;9.70;;;4.72;;
20314;SDS011;10315;50.958;13.080;2022-08-18T00:10:50;7.35;;;4.78;;
20314;SDS011;10315;50.958;13.080;2022-08-18T00:20:51;6.30;;;5.00;;
20314;SDS011;10315;50.958;13.080;2022-08-18T00:30:54;8.43;;;4.50;;
20314;SDS011;10315;50.958;13.080;2022-08-18T00:40:56;8.75;;;4.63;;
20314;SDS011;10315;50.958;13.080;2022-08-18T00:51:01;7.78;;;4.90;;
20314;SDS011;10315;50.958;13.080;2022-08-18T01:01:07;8.10;;;5.10;;
20314;SDS011;10315;50.958;13.080;2022-08-18T01:11:12;9.32;;;4.63;;
20314;SDS011;10315;50.958;13.080;2022-08-18T01:21:15;6.97;;;5.32;;
20314;SDS011;10315;50.958;13.080;2022-08-18T01:31:41;6.65;;;5.18;;
20314;SDS011;10315;50.958;13.080;2022-08-18T01:41:48;6.78;;;5.10;;
20314;SDS011;10315;50.958;13.080;2022-08-18T01:51:51;6.63;;;4.60;;
20314;SDS011;10315;50.958;13.080;2022-08-18T02:01:54;8.00;;;5.03;;
20314;SDS011;10315;50.958;13.080;2022-08-18T02:11:58;5.38;;;4.88;;
20314;SDS011;10315;50.958;13.080;2022-08-18T02:22:00;11.18;;;5.22;;
20314;SDS011;10315;50.958;13.080;2022-08-18T02:32:04;8.27;;;5.38;;
20314;SDS011;10315;50.958;13.080;2022-08-18T02:42:07;11.88;;;5.50;;
20314;SDS011;10315;50.958;13.080;2022-08-18T02:52:10;10.70;;;5.22;;
20314;SDS011;10315;50.958;13.080;2022-08-18T03:02:12;7.97;;;5.10;;
20314;SDS011;10315;50.958;13.080;2022-08-18T03:12:15;5.25;;;4.60;;
20314;SDS011;10315;50.958;13.080;2022-08-18T03:22:16;9.48;;;5.45;;
20314;SDS011;10315;50.958;13.080;2022-08-18T03:32:19;9.55;;;5.75;;
20314;SDS011;10315;50.958;13.080;2022-08-18T03:42:21;9.90;;;5.30;;
20314;SDS011;10315;50.958;13.080;2022-08-18T03:52:24;10.73;;;5.60;;
20314;SDS011;10315;50.958;13.080;2022-08-18T04:02:26;7.95;;;5.85;;
20314;SDS011;10315;50.958;13.080;2022-08-18T04:12:29;8.55;;;5.78;;
20314;SDS011;10315;50.958;13.080;2022-08-18T04:22:30;6.80;;;5.20;;
20314;SDS011;10315;50.958;13.080;2022-08-18T04:32:35;9.50;;;5.70;;
20314;SDS011;10315;50.958;13.080;2022-08-18T04:42:37;7.65;;;5.72;;
20314;SDS011;10315;50.958;13.080;2022-08-18T04:52:40;8.05;;;5.72;;
20314;SDS011;10315;50.958;13.080;2022-08-18T05:03:00;8.85;;;5.28;;
20314;SDS011;10315;50.958;13.080;2022-08-18T05:13:03;9.38;;;5.70;;
20314;SDS011;10315;50.958;13.080;2022-08-18T05:23:05;6.30;;;5.10;;
20314;SDS011;10315;50.958;13.080;2022-08-18T05:33:09;6.63;;;5.15;;
20314;SDS011;10315;50.958;13.080;2022-08-18T05:43:10;6.72;;;4.95;;
20314;SDS011;10315;50.958;13.080;2022-08-18T05:53:15;7.97;;;4.95;;
20314;SDS011;10315;50.958;13.080;2022-08-18T06:03:20;8.35;;;5.70;;
20314;SDS011;10315;50.958;13.080;2022-08-18T06:13:26;10.20;;;6.00;;
20314;SDS011;10315;50.958;13.080;2022-08-18T06:23:28;7.03;;;5.30;;
20314;SDS011;10315;50.958;13.080;2022-08-18T06:33:39;5.55;;;4.85;;
20314;SDS011;10315;50.958;13.080;2022-08-18T06:43:52;8.07;;;4.88;;
20314;SDS011;10315;50.958;13.080;2022-08-18T06:54:01;9.55;;;5.78;;
20314;SDS011;10315;50.958;13.080;2022-08-18T07:04:04;12.63;;;5.25;;
20314;SDS011;10315;50.958;13.080;2022-08-18T07:14:13;11.18;;;5.43;;
20314;SDS011;10315;50.958;13.080;2022-08-18T07:24:27;16.17;;;5.85;;
20314;SDS011;10315;50.958;13.080;2022-08-18T07:34:34;11.05;;;5.80;;
20314;SDS011;10315;50.958;13.080;2022-08-18T07:44:41;7.72;;;5.55;;
20314;SDS011;10315;50.958;13.080;2022-08-18T07:54:49;12.70;;;5.57;;
20314;SDS011;10315;50.958;13.080;2022-08-18T08:05:01;8.27;;;5.90;;
20314;SDS011;10315;50.958;13.080;2022-08-18T08:15:14;12.23;;;6.22;;
20314;SDS011;10315;50.958;13.080;2022-08-18T08:25:36;12.18;;;6.22;;
20314;SDS011;10315;50.958;13.080;2022-08-18T08:35:48;11.77;;;5.80;;
20314;SDS011;10315;50.958;13.080;2022-08-18T08:45:59;9.65;;;6.47;;
20314;SDS011;10315;50.958;13.080;2022-08-18T08:56:09;13.32;;;6.50;;
20314;SDS011;10315;50.958;13.080;2022-08-18T09:06:18;10.45;;;6.22;;
20314;SDS011;10315;50.958;13.080;2022-08-18T09:16:34;13.50;;;6.75;;
20314;SDS011;10315;50.958;13.080;2022-08-18T09:26:45;14.18;;;7.70;;
20314;SDS011;10315;50.958;13.080;2022-08-18T09:36:59;15.32;;;7.82;;
20314;SDS011;10315;50.958;13.080;2022-08-18T09:47:08;15.77;;;6.80;;
20314;SDS011;10315;50.958;13.080;2022-08-18T09:57:19;11.88;;;7.75;;
20314;SDS011;10315;50.958;13.080;2022-08-18T10:07:28;14.85;;;6.93;;
20314;SDS011;10315;50.958;13.080;2022-08-18T10:17:38;12.60;;;7.25;;
20314;SDS011;10315;50.958;13.080;2022-08-18T10:28:02;11.20;;;8.15;;
20314;SDS011;10315;50.958;13.080;2022-08-18T10:38:09;18.08;;;9.30;;
20314;SDS011;10315;50.958;13.080;2022-08-18T10:48:17;13.55;;;8.98;;
20314;SDS011;10315;50.958;13.080;2022-08-18T11:08:58;11.88;;;8.00;;
20314;SDS011;10315;50.958;13.080;2022-08-18T11:19:03;14.48;;;8.55;;
20314;SDS011;10315;50.958;13.080;2022-08-18T11:39:31;14.95;;;8.60;;
20314;SDS011;10315;50.958;13.080;2022-08-18T11:49:34;19.42;;;10.25;;
20314;SDS011;10315;50.958;13.080;2022-08-18T11:59:37;23.20;;;11.05;;
20314;SDS011;10315;50.958;13.080;2022-08-18T12:09:40;19.75;;;11.65;;
20314;SDS011;10315;50.958;13.080;2022-08-18T12:19:43;23.45;;;14.75;;
20314;SDS011;10315;50.958;13.080;2022-08-18T12:29:46;25.00;;;15.55;;
20314;SDS011;10315;50.958;13.080;2022-08-18T12:39:48;28.88;;;15.18;;
20314;SDS011;10315;50.958;13.080;2022-08-18T12:49:51;22.48;;;14.38;;
20314;SDS011;10315;50.958;13.080;2022-08-18T12:59:53;25.00;;;14.73;;
20314;SDS011;10315;50.958;13.080;2022-08-18T13:09:56;26.70;;;13.55;;
20314;SDS011;10315;50.958;13.080;2022-08-18T13:19:58;20.35;;;13.32;;
20314;SDS011;10315;50.958;13.080;2022-08-18T13:30:01;19.98;;;12.30;;
20314;SDS011;10315;50.958;13.080;2022-08-18T13:40:04;16.40;;;11.75;;
20314;SDS011;10315;50.958;13.080;2022-08-18T13:50:14;16.88;;;12.05;;
20314;SDS011;10315;50.958;13.080;2022-08-18T14:00:18;13.93;;;11.75;;
20314;SDS011;10315;50.958;13.080;2022-08-18T14:10:22;19.10;;;11.23;;
20314;SDS011;10315;50.958;13.080;2022-08-18T14:20:25;17.63;;;12.43;;
20314;SDS011;10315;50.958;13.080;2022-08-18T14:30:47;16.13;;;11.15;;
20314;SDS011;10315;50.958;13.080;2022-08-18T14:40:48;16.25;;;10.55;;
20314;SDS011;10315;50.958;13.080;2022-08-18T14:50:53;19.70;;;11.98;;
20314;SDS011;10315;50.958;13.080;2022-08-18T15:00:58;17.60;;;11.27;;
20314;SDS011;10315;50.958;13.080;2022-08-18T15:11:02;17.35;;;12.05;;
20314;SDS011;10315;50.958;13.080;2022-08-18T15:21:06;19.42;;;11.65;;
20314;SDS011;10315;50.958;13.080;2022-08-18T15:31:26;18.30;;;12.00;;
20314;SDS011;10315;50.958;13.080;2022-08-18T15:41:29;20.73;;;10.77;;
20314;SDS011;10315;50.958;13.080;2022-08-18T15:51:37;18.27;;;10.00;;
20314;SDS011;10315;50.958;13.080;2022-08-18T16:01:41;14.50;;;11.32;;
20314;SDS011;10315;50.958;13.080;2022-08-18T16:11:44;18.67;;;11.07;;
20314;SDS011;10315;50.958;13.080;2022-08-18T16:21:46;13.05;;;9.93;;
20314;SDS011;10315;50.958;13.080;2022-08-18T16:31:50;12.73;;;9.70;;
20314;SDS011;10315;50.958;13.080;2022-08-18T16:41:52;14.38;;;9.60;;
20314;SDS011;10315;50.958;13.080;2022-08-18T16:51:55;20.70;;;9.57;;
20314;SDS011;10315;50.958;13.080;2022-08-18T17:02:00;14.13;;;9.10;;
20314;SDS011;10315;50.958;13.080;2022-08-18T17:12:29;11.63;;;8.82;;
20314;SDS011;10315;50.958;13.080;2022-08-18T17:22:31;13.77;;;9.38;;
20314;SDS011;10315;50.958;13.080;2022-08-18T17:32:38;13.15;;;9.13;;
20314;SDS011;10315;50.958;13.080;2022-08-18T17:42:43;15.00;;;9.55;;
20314;SDS011;10315;50.958;13.080;2022-08-18T17:52:49;15.70;;;9.18;;
20314;SDS011;10315;50.958;13.080;2022-08-18T18:02:55;12.70;;;9.48;;
20314;SDS011;10315;50.958;13.080;2022-08-18T18:13:07;12.40;;;10.05;;
20314;SDS011;10315;50.958;13.080;2022-08-18T18:23:15;15.57;;;10.55;;
20314;SDS011;10315;50.958;13.080;2022-08-18T18:33:19;14.13;;;10.10;;
20314;SDS011;10315;50.958;13.080;2022-08-18T18:43:22;28.10;;;12.77;;
20314;SDS011;10315;50.958;13.080;2022-08-18T18:53:29;38.53;;;18.15;;
20314;SDS011;10315;50.958;13.080;2022-08-18T19:03:42;36.55;;;20.90;;
20314;SDS011;10315;50.958;13.080;2022-08-18T19:13:51;46.85;;;23.38;;
20314;SDS011;10315;50.958;13.080;2022-08-18T19:23:56;50.22;;;27.27;;
20314;SDS011;10315;50.958;13.080;2022-08-18T19:34:05;57.42;;;28.35;;
20314;SDS011;10315;50.958;13.080;2022-08-18T19:44:13;50.17;;;26.83;;
20314;SDS011;10315;50.958;13.080;2022-08-18T19:54:33;52.80;;;27.63;;
20314;SDS011;10315;50.958;13.080;2022-08-18T20:04:49;62.15;;;33.30;;
20314;SDS011;10315;50.958;13.080;2022-08-18T20:15:08;71.80;;;36.83;;
20314;SDS011;10315;50.958;13.080;2022-08-18T20:25:31;66.38;;;35.85;;
20314;SDS011;10315;50.958;13.080;2022-08-18T20:35:42;62.70;;;34.15;;
20314;SDS011;10315;50.958;13.080;2022-08-18T20:45:51;70.70;;;36.20;;
20314;SDS011;10315;50.958;13.080;2022-08-18T20:56:16;85.68;;;39.33;;
20314;SDS011;10315;50.958;13.080;2022-08-18T21:06:24;81.95;;;39.05;;
20314;SDS011;10315;50.958;13.080;2022-08-18T21:16:33;79.78;;;38.60;;
20314;SDS011;10315;50.958;13.080;2022-08-18T21:26:37;80.57;;;38.17;;
20314;SDS011;10315;50.958;13.080;2022-08-18T21:36:48;74.00;;;35.47;;
20314;SDS011;10315;50.958;13.080;2022-08-18T21:47:01;61.80;;;31.95;;
20314;SDS011;10315;50.958;13.080;2022-08-18T21:57:20;65.95;;;32.20;;
20314;SDS011;10315;50.958;13.080;2022-08-18T22:07:23;61.22;;;31.15;;
20314;SDS011;10315;50.958;13.080;2022-08-18T22:17:27;61.55;;;30.60;;
20314;SDS011;10315;50.958;13.080;2022-08-18T22:27:31;57.80;;;30.02;;
20314;SDS011;10315;50.958;13.080;2022-08-18T22:37:42;64.53;;;31.25;;
20314;SDS011;10315;50.958;13.080;2022-08-18T22:47:45;65.05;;;32.08;;
20314;SDS011;10315;50.958;13.080;2022-08-18T22:57:48;62.90;;;33.45;;
20314;SDS011;10315;50.958;13.080;2022-08-18T23:07:50;65.07;;;32.35;;
20314;SDS011;10315;50.958;13.080;2022-08-18T23:17:53;59.78;;;30.17;;
20314;SDS011;10315;50.958;13.080;2022-08-18T23:27:57;58.30;;;28.67;;
20314;SDS011;10315;50.958;13.080;2022-08-18T23:38:00;51.53;;;27.52;;
20314;SDS011;10315;50.958;13.080;2022-08-18T23:48:02;53.88;;;29.08;;
20314;SDS011;10315;50.958;13.080;2022-08-18T23:58:06;56.10;;;29.35;;
